aviador You're here:

KPAE Decoded Metar

EVERETT in WA, USA
Report Time2017-10-23 10:53:00
UTC Time2017-10-23 11:25:51
Flight Rules mvfr MVFR
Wind120° at 05 kt
W.Decomp.*RWY 11: 5.0 kt HW 0.6 kt LCW
RWY 16: 2.7 kt HW 4.2 kt LCW
W.Rank120° ranks 10
Current wind is below 120° avg. (5.3)
Visibility9999 m
Phenomena:N/A
Clouds:Overcast 010 Hf
Expected CloudBase > 800 ft AGL from Temp-Dew spread
Ceiling1,000 ft
Temp11°C (ISA -3)
Dew Point09°C (88% RH)
AAT9.0°C
QNH1035 hPa
Density Alt-328 ft
Elevation591 ft
Report Wrong Elevation
Raw Report
METAR KPAE 231053Z AUTO 12005KT 10SM OVC010 11/09 A3055 RMK AO2 SLP347
T01060089 $=

Extra information for KPAE:More info

Metar Taf Metar & Taf Last 4 Metars F.Rules Stats Wind Profile Meteogram Temp Stats Airport Information Weather charts Add Link Nearby VenuesMetar ALERT Operation Metar Decoded Social comments

AIRNAV info for KPAE